Terminal Aerodrome Forecast
Issued by NWS Wilmington, NC

Home | Current Version | Previous Version | Text Only | Print | Product List | Glossary On
Versions: 1 2 3 4 5 6 7 8 9 10 11 12 13 14 15 16
617
FTUS42 KILM 271903 AAA
TAFMYR
TAF AMD
KMYR 271903Z 2719/2818 23015G20KT P6SM FEW045
     FM280000 24008KT P6SM FEW050
     FM281000 25007KT P6SM FEW200=

USA.gov is the U.S. government's official web portal to all federal, state and local government web resources and services.